sensor_id;sensor_type;location;lat;lon;timestamp;temperature;humidity
10030;DHT22;5055;52.054;8.524;2024-02-21T00:01:08;8.60;97.00
10030;DHT22;5055;52.054;8.524;2024-02-21T00:03:37;8.60;97.00
10030;DHT22;5055;52.054;8.524;2024-02-21T00:06:06;8.70;97.00
10030;DHT22;5055;52.054;8.524;2024-02-21T00:08:34;8.70;97.00
10030;DHT22;5055;52.054;8.524;2024-02-21T00:11:02;8.70;97.00
10030;DHT22;5055;52.054;8.524;2024-02-21T00:13:31;8.70;97.00
10030;DHT22;5055;52.054;8.524;2024-02-21T00:16:00;8.70;97.00
10030;DHT22;5055;52.054;8.524;2024-02-21T00:18:29;8.70;97.00
10030;DHT22;5055;52.054;8.524;2024-02-21T00:20:58;8.70;97.00
10030;DHT22;5055;52.054;8.524;2024-02-21T00:23:28;8.70;97.00
10030;DHT22;5055;52.054;8.524;2024-02-21T00:25:56;8.70;97.00
10030;DHT22;5055;52.054;8.524;2024-02-21T00:28:24;8.70;97.00
10030;DHT22;5055;52.054;8.524;2024-02-21T00:30:53;8.70;97.00
10030;DHT22;5055;52.054;8.524;2024-02-21T00:33:21;8.70;97.00
10030;DHT22;5055;52.054;8.524;2024-02-21T00:35:49;8.70;97.00
10030;DHT22;5055;52.054;8.524;2024-02-21T00:38:19;8.70;97.00
10030;DHT22;5055;52.054;8.524;2024-02-21T00:40:47;8.70;97.00
10030;DHT22;5055;52.054;8.524;2024-02-21T00:43:15;8.70;97.00
10030;DHT22;5055;52.054;8.524;2024-02-21T00:45:44;8.70;97.00
10030;DHT22;5055;52.054;8.524;2024-02-21T00:48:12;8.70;97.00
10030;DHT22;5055;52.054;8.524;2024-02-21T00:50:40;8.70;97.00
10030;DHT22;5055;52.054;8.524;2024-02-21T00:53:08;8.70;97.00
10030;DHT22;5055;52.054;8.524;2024-02-21T00:55:38;8.70;97.00
10030;DHT22;5055;52.054;8.524;2024-02-21T00:58:07;8.70;97.00
10030;DHT22;5055;52.054;8.524;2024-02-21T01:00:35;8.70;97.00
10030;DHT22;5055;52.054;8.524;2024-02-21T01:03:03;8.70;97.00
10030;DHT22;5055;52.054;8.524;2024-02-21T01:05:31;8.70;97.00
10030;DHT22;5055;52.054;8.524;2024-02-21T01:07:59;8.70;97.00
10030;DHT22;5055;52.054;8.524;2024-02-21T01:10:28;8.70;97.00
10030;DHT22;5055;52.054;8.524;2024-02-21T01:12:59;8.70;97.00
10030;DHT22;5055;52.054;8.524;2024-02-21T01:15:27;8.70;97.00
10030;DHT22;5055;52.054;8.524;2024-02-21T01:17:55;8.70;97.00
10030;DHT22;5055;52.054;8.524;2024-02-21T01:20:23;8.70;97.00
10030;DHT22;5055;52.054;8.524;2024-02-21T01:22:51;8.70;97.00
10030;DHT22;5055;52.054;8.524;2024-02-21T01:25:19;8.70;97.00
10030;DHT22;5055;52.054;8.524;2024-02-21T01:27:48;8.70;97.00
10030;DHT22;5055;52.054;8.524;2024-02-21T01:30:17;8.70;97.00
10030;DHT22;5055;52.054;8.524;2024-02-21T01:32:45;8.70;97.00
10030;DHT22;5055;52.054;8.524;2024-02-21T01:35:14;8.70;97.00
10030;DHT22;5055;52.054;8.524;2024-02-21T01:37:42;8.70;97.00
10030;DHT22;5055;52.054;8.524;2024-02-21T01:40:11;8.70;97.00
10030;DHT22;5055;52.054;8.524;2024-02-21T01:42:39;8.70;97.00
10030;DHT22;5055;52.054;8.524;2024-02-21T01:45:09;8.70;97.00
10030;DHT22;5055;52.054;8.524;2024-02-21T01:47:38;8.70;97.00
10030;DHT22;5055;52.054;8.524;2024-02-21T01:50:07;8.80;97.00
10030;DHT22;5055;52.054;8.524;2024-02-21T01:52:35;8.80;97.00
10030;DHT22;5055;52.054;8.524;2024-02-21T01:55:05;8.70;97.00
10030;DHT22;5055;52.054;8.524;2024-02-21T01:57:34;8.80;97.00
10030;DHT22;5055;52.054;8.524;2024-02-21T02:00:02;8.70;97.00
10030;DHT22;5055;52.054;8.524;2024-02-21T02:02:30;8.70;97.00
10030;DHT22;5055;52.054;8.524;2024-02-21T02:05:01;8.70;97.00
10030;DHT22;5055;52.054;8.524;2024-02-21T02:07:29;8.70;97.00
10030;DHT22;5055;52.054;8.524;2024-02-21T02:09:57;8.70;97.00
10030;DHT22;5055;52.054;8.524;2024-02-21T02:12:26;8.70;97.00
10030;DHT22;5055;52.054;8.524;2024-02-21T02:14:58;8.70;97.00
10030;DHT22;5055;52.054;8.524;2024-02-21T02:17:26;8.70;97.00
10030;DHT22;5055;52.054;8.524;2024-02-21T02:19:54;8.70;97.00
10030;DHT22;5055;52.054;8.524;2024-02-21T02:22:28;8.70;97.00
10030;DHT22;5055;52.054;8.524;2024-02-21T02:24:58;8.70;97.00
10030;DHT22;5055;52.054;8.524;2024-02-21T02:27:26;8.70;97.00
10030;DHT22;5055;52.054;8.524;2024-02-21T02:29:54;8.70;97.00
10030;DHT22;5055;52.054;8.524;2024-02-21T02:32:22;8.70;97.00
10030;DHT22;5055;52.054;8.524;2024-02-21T02:34:50;8.70;97.00
10030;DHT22;5055;52.054;8.524;2024-02-21T02:37:18;8.70;97.00
10030;DHT22;5055;52.054;8.524;2024-02-21T02:39:46;8.70;97.00
10030;DHT22;5055;52.054;8.524;2024-02-21T02:42:17;8.70;97.00
10030;DHT22;5055;52.054;8.524;2024-02-21T02:44:45;8.70;97.00
10030;DHT22;5055;52.054;8.524;2024-02-21T02:47:13;8.70;97.00
10030;DHT22;5055;52.054;8.524;2024-02-21T02:49:41;8.70;97.00
10030;DHT22;5055;52.054;8.524;2024-02-21T02:52:10;8.70;97.00
10030;DHT22;5055;52.054;8.524;2024-02-21T02:54:39;8.70;97.00
10030;DHT22;5055;52.054;8.524;2024-02-21T02:57:07;8.70;97.00
10030;DHT22;5055;52.054;8.524;2024-02-21T02:59:36;8.70;97.00
10030;DHT22;5055;52.054;8.524;2024-02-21T03:02:04;8.70;97.00
10030;DHT22;5055;52.054;8.524;2024-02-21T03:04:32;8.70;97.00
10030;DHT22;5055;52.054;8.524;2024-02-21T03:07:01;8.70;97.00
10030;DHT22;5055;52.054;8.524;2024-02-21T03:09:29;8.70;97.00
10030;DHT22;5055;52.054;8.524;2024-02-21T03:11:57;8.70;97.00
10030;DHT22;5055;52.054;8.524;2024-02-21T03:14:29;8.70;97.00
10030;DHT22;5055;52.054;8.524;2024-02-21T03:16:59;8.70;97.00
10030;DHT22;5055;52.054;8.524;2024-02-21T03:19:28;8.70;97.00
10030;DHT22;5055;52.054;8.524;2024-02-21T03:21:56;8.70;97.00
10030;DHT22;5055;52.054;8.524;2024-02-21T03:24:24;8.70;97.00
10030;DHT22;5055;52.054;8.524;2024-02-21T03:26:52;8.70;97.00
10030;DHT22;5055;52.054;8.524;2024-02-21T03:29:20;8.70;97.00
10030;DHT22;5055;52.054;8.524;2024-02-21T03:31:48;8.70;97.00
10030;DHT22;5055;52.054;8.524;2024-02-21T03:34:17;8.70;97.00
10030;DHT22;5055;52.054;8.524;2024-02-21T03:36:46;8.70;97.00
10030;DHT22;5055;52.054;8.524;2024-02-21T03:39:14;8.70;97.00
10030;DHT22;5055;52.054;8.524;2024-02-21T03:41:42;8.70;97.00
10030;DHT22;5055;52.054;8.524;2024-02-21T03:44:10;8.70;97.00
10030;DHT22;5055;52.054;8.524;2024-02-21T03:46:38;8.70;97.00
10030;DHT22;5055;52.054;8.524;2024-02-21T03:49:06;8.70;97.00
10030;DHT22;5055;52.054;8.524;2024-02-21T03:51:36;8.80;97.00
10030;DHT22;5055;52.054;8.524;2024-02-21T03:54:04;8.80;97.00
10030;DHT22;5055;52.054;8.524;2024-02-21T03:56:32;8.70;97.00
10030;DHT22;5055;52.054;8.524;2024-02-21T03:59:00;8.80;97.00
10030;DHT22;5055;52.054;8.524;2024-02-21T04:01:28;8.80;97.00
10030;DHT22;5055;52.054;8.524;2024-02-21T04:03:56;8.80;97.00
10030;DHT22;5055;52.054;8.524;2024-02-21T04:06:25;8.80;97.00
10030;DHT22;5055;52.054;8.524;2024-02-21T04:08:55;8.80;97.00
10030;DHT22;5055;52.054;8.524;2024-02-21T04:11:23;8.80;97.00
10030;DHT22;5055;52.054;8.524;2024-02-21T04:13:51;8.70;97.00
10030;DHT22;5055;52.054;8.524;2024-02-21T04:16:19;8.80;97.00
10030;DHT22;5055;52.054;8.524;2024-02-21T04:18:47;8.80;97.00
10030;DHT22;5055;52.054;8.524;2024-02-21T04:21:16;8.80;97.00
10030;DHT22;5055;52.054;8.524;2024-02-21T04:23:44;8.80;97.00
10030;DHT22;5055;52.054;8.524;2024-02-21T04:26:14;8.80;97.00
10030;DHT22;5055;52.054;8.524;2024-02-21T04:28:42;8.80;97.00
10030;DHT22;5055;52.054;8.524;2024-02-21T04:31:12;8.80;97.00
10030;DHT22;5055;52.054;8.524;2024-02-21T04:33:40;8.80;97.00
10030;DHT22;5055;52.054;8.524;2024-02-21T04:36:08;8.80;97.00
10030;DHT22;5055;52.054;8.524;2024-02-21T04:38:37;8.80;97.00
10030;DHT22;5055;52.054;8.524;2024-02-21T04:41:06;8.80;97.00
10030;DHT22;5055;52.054;8.524;2024-02-21T04:43:36;8.80;97.00
10030;DHT22;5055;52.054;8.524;2024-02-21T04:46:04;8.80;97.00
10030;DHT22;5055;52.054;8.524;2024-02-21T04:48:33;8.80;97.00
10030;DHT22;5055;52.054;8.524;2024-02-21T04:51:01;8.80;97.00
10030;DHT22;5055;52.054;8.524;2024-02-21T04:53:29;8.80;97.00
10030;DHT22;5055;52.054;8.524;2024-02-21T04:55:57;8.70;97.00
10030;DHT22;5055;52.054;8.524;2024-02-21T04:58:25;8.70;97.00
10030;DHT22;5055;52.054;8.524;2024-02-21T05:00:55;8.70;97.00
10030;DHT22;5055;52.054;8.524;2024-02-21T05:03:24;8.70;97.00
10030;DHT22;5055;52.054;8.524;2024-02-21T05:05:52;8.60;97.00
10030;DHT22;5055;52.054;8.524;2024-02-21T05:08:20;8.60;97.00
10030;DHT22;5055;52.054;8.524;2024-02-21T05:10:48;8.60;97.00
10030;DHT22;5055;52.054;8.524;2024-02-21T05:13:16;8.50;97.00
10030;DHT22;5055;52.054;8.524;2024-02-21T05:15:44;8.50;97.00
10030;DHT22;5055;52.054;8.524;2024-02-21T05:18:14;8.50;97.00
10030;DHT22;5055;52.054;8.524;2024-02-21T05:20:42;8.50;97.00
10030;DHT22;5055;52.054;8.524;2024-02-21T05:23:10;8.50;97.00
10030;DHT22;5055;52.054;8.524;2024-02-21T05:25:38;8.50;97.00
10030;DHT22;5055;52.054;8.524;2024-02-21T05:28:06;8.50;97.00
10030;DHT22;5055;52.054;8.524;2024-02-21T05:30:34;8.40;97.00
10030;DHT22;5055;52.054;8.524;2024-02-21T05:33:04;8.40;97.00
10030;DHT22;5055;52.054;8.524;2024-02-21T05:35:35;8.40;97.00
10030;DHT22;5055;52.054;8.524;2024-02-21T05:38:03;8.40;97.00
10030;DHT22;5055;52.054;8.524;2024-02-21T05:40:38;8.40;97.00
10030;DHT22;5055;52.054;8.524;2024-02-21T05:43:07;8.40;97.00
10030;DHT22;5055;52.054;8.524;2024-02-21T05:45:35;8.40;97.00
10030;DHT22;5055;52.054;8.524;2024-02-21T05:48:04;8.40;97.00
10030;DHT22;5055;52.054;8.524;2024-02-21T05:50:34;8.30;97.00
10030;DHT22;5055;52.054;8.524;2024-02-21T05:53:02;8.30;97.00
10030;DHT22;5055;52.054;8.524;2024-02-21T05:55:30;8.30;97.00
10030;DHT22;5055;52.054;8.524;2024-02-21T05:57:58;8.30;97.00
10030;DHT22;5055;52.054;8.524;2024-02-21T06:00:27;8.30;97.00
10030;DHT22;5055;52.054;8.524;2024-02-21T06:02:55;8.30;97.00
10030;DHT22;5055;52.054;8.524;2024-02-21T06:05:23;8.30;97.00
10030;DHT22;5055;52.054;8.524;2024-02-21T06:07:52;8.30;97.00
10030;DHT22;5055;52.054;8.524;2024-02-21T06:10:20;8.30;97.00
10030;DHT22;5055;52.054;8.524;2024-02-21T06:12:49;8.30;97.00
10030;DHT22;5055;52.054;8.524;2024-02-21T06:15:17;8.30;97.00
10030;DHT22;5055;52.054;8.524;2024-02-21T06:17:46;8.40;97.00
10030;DHT22;5055;52.054;8.524;2024-02-21T06:20:16;8.40;97.00
10030;DHT22;5055;52.054;8.524;2024-02-21T06:22:44;8.40;97.00
10030;DHT22;5055;52.054;8.524;2024-02-21T06:25:14;8.40;97.00
10030;DHT22;5055;52.054;8.524;2024-02-21T06:27:43;8.40;97.00
10030;DHT22;5055;52.054;8.524;2024-02-21T06:30:12;8.40;97.00
10030;DHT22;5055;52.054;8.524;2024-02-21T06:32:40;8.40;97.00
10030;DHT22;5055;52.054;8.524;2024-02-21T06:35:08;8.50;97.00
10030;DHT22;5055;52.054;8.524;2024-02-21T06:37:36;8.50;97.00
10030;DHT22;5055;52.054;8.524;2024-02-21T06:40:06;8.50;97.00
10030;DHT22;5055;52.054;8.524;2024-02-21T06:42:36;8.50;97.00
10030;DHT22;5055;52.054;8.524;2024-02-21T06:45:05;8.50;97.00
10030;DHT22;5055;52.054;8.524;2024-02-21T06:47:33;8.50;97.00
10030;DHT22;5055;52.054;8.524;2024-02-21T06:50:02;8.50;97.00
10030;DHT22;5055;52.054;8.524;2024-02-21T06:52:30;8.50;97.00
10030;DHT22;5055;52.054;8.524;2024-02-21T06:55:01;8.50;97.00
10030;DHT22;5055;52.054;8.524;2024-02-21T06:57:30;8.60;97.00
10030;DHT22;5055;52.054;8.524;2024-02-21T06:59:59;8.60;97.00
10030;DHT22;5055;52.054;8.524;2024-02-21T07:02:27;8.60;97.00
10030;DHT22;5055;52.054;8.524;2024-02-21T07:04:56;8.60;97.00
10030;DHT22;5055;52.054;8.524;2024-02-21T07:07:24;8.60;97.00
10030;DHT22;5055;52.054;8.524;2024-02-21T07:09:52;8.60;97.00
10030;DHT22;5055;52.054;8.524;2024-02-21T07:12:21;8.60;97.00
10030;DHT22;5055;52.054;8.524;2024-02-21T07:14:49;8.70;97.00
10030;DHT22;5055;52.054;8.524;2024-02-21T07:17:19;8.70;97.00
10030;DHT22;5055;52.054;8.524;2024-02-21T07:19:47;8.70;97.00
10030;DHT22;5055;52.054;8.524;2024-02-21T07:22:15;8.70;97.00
10030;DHT22;5055;52.054;8.524;2024-02-21T07:24:43;8.70;97.00
10030;DHT22;5055;52.054;8.524;2024-02-21T07:27:14;8.80;97.00
10030;DHT22;5055;52.054;8.524;2024-02-21T07:29:42;8.80;97.00
10030;DHT22;5055;52.054;8.524;2024-02-21T07:32:14;8.80;97.00
10030;DHT22;5055;52.054;8.524;2024-02-21T07:34:44;8.80;97.00
10030;DHT22;5055;52.054;8.524;2024-02-21T07:37:12;8.80;97.00
10030;DHT22;5055;52.054;8.524;2024-02-21T07:39:41;8.90;97.00
10030;DHT22;5055;52.054;8.524;2024-02-21T07:42:09;8.90;97.00
10030;DHT22;5055;52.054;8.524;2024-02-21T07:44:37;8.90;97.00
10030;DHT22;5055;52.054;8.524;2024-02-21T07:47:05;8.90;97.00
10030;DHT22;5055;52.054;8.524;2024-02-21T07:49:41;8.90;97.00
10030;DHT22;5055;52.054;8.524;2024-02-21T07:52:11;8.90;97.00
10030;DHT22;5055;52.054;8.524;2024-02-21T07:54:40;8.90;97.00
10030;DHT22;5055;52.054;8.524;2024-02-21T07:57:08;9.00;97.00
10030;DHT22;5055;52.054;8.524;2024-02-21T07:59:36;9.00;97.00
10030;DHT22;5055;52.054;8.524;2024-02-21T08:02:04;9.00;97.00
10030;DHT22;5055;52.054;8.524;2024-02-21T08:04:33;9.10;97.00
10030;DHT22;5055;52.054;8.524;2024-02-21T08:07:02;9.10;97.00
10030;DHT22;5055;52.054;8.524;2024-02-21T08:09:32;9.10;97.00
10030;DHT22;5055;52.054;8.524;2024-02-21T08:12:01;9.10;97.00
10030;DHT22;5055;52.054;8.524;2024-02-21T08:14:29;9.20;97.00
10030;DHT22;5055;52.054;8.524;2024-02-21T08:16:57;9.20;97.00
10030;DHT22;5055;52.054;8.524;2024-02-21T08:19:26;9.20;97.00
10030;DHT22;5055;52.054;8.524;2024-02-21T08:21:55;9.20;97.00
10030;DHT22;5055;52.054;8.524;2024-02-21T08:24:23;9.30;97.00
10030;DHT22;5055;52.054;8.524;2024-02-21T08:26:52;9.30;97.00
10030;DHT22;5055;52.054;8.524;2024-02-21T08:29:20;9.30;97.00
10030;DHT22;5055;52.054;8.524;2024-02-21T08:31:49;9.30;97.00
10030;DHT22;5055;52.054;8.524;2024-02-21T08:34:17;9.40;97.00
10030;DHT22;5055;52.054;8.524;2024-02-21T08:36:45;9.40;97.00
10030;DHT22;5055;52.054;8.524;2024-02-21T08:39:13;9.50;97.00
10030;DHT22;5055;52.054;8.524;2024-02-21T08:41:44;9.50;97.00
10030;DHT22;5055;52.054;8.524;2024-02-21T08:44:24;9.60;97.00
10030;DHT22;5055;52.054;8.524;2024-02-21T08:46:54;9.70;97.00
10030;DHT22;5055;52.054;8.524;2024-02-21T08:49:23;9.70;97.00
10030;DHT22;5055;52.054;8.524;2024-02-21T08:52:00;9.80;97.00
10030;DHT22;5055;52.054;8.524;2024-02-21T08:54:28;9.90;97.00
10030;DHT22;5055;52.054;8.524;2024-02-21T08:56:56;9.90;97.00
10030;DHT22;5055;52.054;8.524;2024-02-21T08:59:26;9.90;97.00
10030;DHT22;5055;52.054;8.524;2024-02-21T09:01:54;9.90;97.00
10030;DHT22;5055;52.054;8.524;2024-02-21T09:04:22;10.00;97.00
10030;DHT22;5055;52.054;8.524;2024-02-21T09:06:51;10.10;97.00
10030;DHT22;5055;52.054;8.524;2024-02-21T09:09:19;10.20;97.00
10030;DHT22;5055;52.054;8.524;2024-02-21T09:11:48;10.20;97.00
10030;DHT22;5055;52.054;8.524;2024-02-21T09:14:16;10.20;97.00
10030;DHT22;5055;52.054;8.524;2024-02-21T09:16:45;10.20;97.00
10030;DHT22;5055;52.054;8.524;2024-02-21T09:19:13;10.20;97.00
10030;DHT22;5055;52.054;8.524;2024-02-21T09:21:42;10.20;97.00
10030;DHT22;5055;52.054;8.524;2024-02-21T09:24:10;10.30;97.00
10030;DHT22;5055;52.054;8.524;2024-02-21T09:26:38;10.30;97.00
10030;DHT22;5055;52.054;8.524;2024-02-21T09:29:06;10.30;97.00
10030;DHT22;5055;52.054;8.524;2024-02-21T09:31:35;10.30;97.00
10030;DHT22;5055;52.054;8.524;2024-02-21T09:34:04;10.30;97.00
10030;DHT22;5055;52.054;8.524;2024-02-21T09:36:32;10.40;97.00
10030;DHT22;5055;52.054;8.524;2024-02-21T09:39:00;10.40;97.00
10030;DHT22;5055;52.054;8.524;2024-02-21T09:41:28;10.50;97.00
10030;DHT22;5055;52.054;8.524;2024-02-21T09:43:56;10.50;97.00
10030;DHT22;5055;52.054;8.524;2024-02-21T09:46:30;10.50;97.00
10030;DHT22;5055;52.054;8.524;2024-02-21T09:49:13;10.60;97.00
10030;DHT22;5055;52.054;8.524;2024-02-21T09:51:45;10.60;97.00
10030;DHT22;5055;52.054;8.524;2024-02-21T09:54:15;10.70;97.00
10030;DHT22;5055;52.054;8.524;2024-02-21T09:56:45;10.80;97.00
10030;DHT22;5055;52.054;8.524;2024-02-21T09:59:15;10.90;97.00
10030;DHT22;5055;52.054;8.524;2024-02-21T10:01:44;10.90;97.00
10030;DHT22;5055;52.054;8.524;2024-02-21T10:04:15;10.90;97.00
10030;DHT22;5055;52.054;8.524;2024-02-21T10:06:44;10.90;97.00
10030;DHT22;5055;52.054;8.524;2024-02-21T10:09:20;10.90;97.00
10030;DHT22;5055;52.054;8.524;2024-02-21T10:11:50;10.90;97.00
10030;DHT22;5055;52.054;8.524;2024-02-21T10:14:19;10.90;97.00
10030;DHT22;5055;52.054;8.524;2024-02-21T10:16:48;10.80;97.00
10030;DHT22;5055;52.054;8.524;2024-02-21T10:19:19;10.80;97.00
10030;DHT22;5055;52.054;8.524;2024-02-21T10:22:04;10.80;97.00
10030;DHT22;5055;52.054;8.524;2024-02-21T10:24:35;10.80;97.00
10030;DHT22;5055;52.054;8.524;2024-02-21T10:27:07;10.90;97.00
10030;DHT22;5055;52.054;8.524;2024-02-21T10:29:38;10.90;97.00
10030;DHT22;5055;52.054;8.524;2024-02-21T10:32:07;10.90;97.00
10030;DHT22;5055;52.054;8.524;2024-02-21T10:34:38;11.00;97.00
10030;DHT22;5055;52.054;8.524;2024-02-21T10:37:07;10.90;97.00
10030;DHT22;5055;52.054;8.524;2024-02-21T10:39:38;10.80;97.00
10030;DHT22;5055;52.054;8.524;2024-02-21T10:42:07;10.80;97.00
10030;DHT22;5055;52.054;8.524;2024-02-21T10:44:37;10.80;97.00
10030;DHT22;5055;52.054;8.524;2024-02-21T10:47:08;10.80;97.00
10030;DHT22;5055;52.054;8.524;2024-02-21T10:49:39;10.80;97.00
10030;DHT22;5055;52.054;8.524;2024-02-21T10:52:13;10.80;97.00
10030;DHT22;5055;52.054;8.524;2024-02-21T10:54:45;10.80;97.00
10030;DHT22;5055;52.054;8.524;2024-02-21T10:57:14;10.70;97.00
10030;DHT22;5055;52.054;8.524;2024-02-21T10:59:44;10.70;97.00
10030;DHT22;5055;52.054;8.524;2024-02-21T11:02:12;10.70;97.00
10030;DHT22;5055;52.054;8.524;2024-02-21T11:04:43;10.60;97.00
10030;DHT22;5055;52.054;8.524;2024-02-21T11:07:13;10.60;97.00
10030;DHT22;5055;52.054;8.524;2024-02-21T11:09:50;10.60;97.00
10030;DHT22;5055;52.054;8.524;2024-02-21T11:12:21;10.70;97.00
10030;DHT22;5055;52.054;8.524;2024-02-21T11:14:49;10.60;97.00
10030;DHT22;5055;52.054;8.524;2024-02-21T11:17:18;10.70;97.00
10030;DHT22;5055;52.054;8.524;2024-02-21T11:19:49;10.70;97.00
10030;DHT22;5055;52.054;8.524;2024-02-21T11:22:19;10.80;97.00
10030;DHT22;5055;52.054;8.524;2024-02-21T11:24:50;10.80;97.00
10030;DHT22;5055;52.054;8.524;2024-02-21T11:27:19;10.90;97.00
10030;DHT22;5055;52.054;8.524;2024-02-21T11:29:49;11.00;97.00
10030;DHT22;5055;52.054;8.524;2024-02-21T11:32:20;11.00;97.00
10030;DHT22;5055;52.054;8.524;2024-02-21T11:34:57;11.00;97.00
10030;DHT22;5055;52.054;8.524;2024-02-21T11:37:30;11.00;97.00
10030;DHT22;5055;52.054;8.524;2024-02-21T11:40:00;11.20;97.00
10030;DHT22;5055;52.054;8.524;2024-02-21T11:42:30;11.30;97.00
10030;DHT22;5055;52.054;8.524;2024-02-21T11:44:59;11.30;97.00
10030;DHT22;5055;52.054;8.524;2024-02-21T11:47:29;11.30;97.00
10030;DHT22;5055;52.054;8.524;2024-02-21T11:49:58;11.20;97.00
10030;DHT22;5055;52.054;8.524;2024-02-21T11:52:27;11.10;97.00
10030;DHT22;5055;52.054;8.524;2024-02-21T11:54:56;11.10;97.00
10030;DHT22;5055;52.054;8.524;2024-02-21T11:57:32;11.10;97.00
10030;DHT22;5055;52.054;8.524;2024-02-21T12:00:14;11.00;97.00
10030;DHT22;5055;52.054;8.524;2024-02-21T12:02:42;11.00;97.00
10030;DHT22;5055;52.054;8.524;2024-02-21T12:05:12;10.90;97.00
10030;DHT22;5055;52.054;8.524;2024-02-21T12:07:41;10.80;97.00
10030;DHT22;5055;52.054;8.524;2024-02-21T12:10:10;10.60;97.00
10030;DHT22;5055;52.054;8.524;2024-02-21T12:12:39;10.50;97.00
10030;DHT22;5055;52.054;8.524;2024-02-21T12:15:08;10.50;97.00
10030;DHT22;5055;52.054;8.524;2024-02-21T12:17:36;10.50;97.00
10030;DHT22;5055;52.054;8.524;2024-02-21T12:20:06;10.50;97.00
10030;DHT22;5055;52.054;8.524;2024-02-21T12:22:38;10.50;97.00
10030;DHT22;5055;52.054;8.524;2024-02-21T12:25:16;10.50;97.00
10030;DHT22;5055;52.054;8.524;2024-02-21T12:27:46;10.40;97.00
10030;DHT22;5055;52.054;8.524;2024-02-21T12:30:14;10.50;97.00
10030;DHT22;5055;52.054;8.524;2024-02-21T12:32:42;10.40;97.00
10030;DHT22;5055;52.054;8.524;2024-02-21T12:35:11;10.50;97.00
10030;DHT22;5055;52.054;8.524;2024-02-21T12:37:41;10.50;97.00
10030;DHT22;5055;52.054;8.524;2024-02-21T12:40:10;10.50;97.00
10030;DHT22;5055;52.054;8.524;2024-02-21T12:42:41;10.50;97.00
10030;DHT22;5055;52.054;8.524;2024-02-21T12:45:09;10.40;97.00
10030;DHT22;5055;52.054;8.524;2024-02-21T12:47:38;10.30;97.00
10030;DHT22;5055;52.054;8.524;2024-02-21T12:50:07;10.40;97.00
10030;DHT22;5055;52.054;8.524;2024-02-21T12:52:36;10.40;97.00
10030;DHT22;5055;52.054;8.524;2024-02-21T12:55:06;10.40;97.00
10030;DHT22;5055;52.054;8.524;2024-02-21T12:57:37;10.50;97.00
10030;DHT22;5055;52.054;8.524;2024-02-21T13:00:07;10.60;97.00
10030;DHT22;5055;52.054;8.524;2024-02-21T13:02:38;10.70;97.00
10030;DHT22;5055;52.054;8.524;2024-02-21T13:05:09;10.60;97.00
10030;DHT22;5055;52.054;8.524;2024-02-21T13:07:37;10.60;97.00
10030;DHT22;5055;52.054;8.524;2024-02-21T13:10:07;10.60;97.00
10030;DHT22;5055;52.054;8.524;2024-02-21T13:12:36;10.60;97.00
10030;DHT22;5055;52.054;8.524;2024-02-21T13:15:05;10.50;97.00
10030;DHT22;5055;52.054;8.524;2024-02-21T13:17:33;10.40;97.00
10030;DHT22;5055;52.054;8.524;2024-02-21T13:20:01;10.40;97.00
10030;DHT22;5055;52.054;8.524;2024-02-21T13:22:30;10.40;97.00
10030;DHT22;5055;52.054;8.524;2024-02-21T13:24:58;10.50;97.00
10030;DHT22;5055;52.054;8.524;2024-02-21T13:27:28;10.50;97.00
10030;DHT22;5055;52.054;8.524;2024-02-21T13:29:56;10.50;97.00
10030;DHT22;5055;52.054;8.524;2024-02-21T13:32:25;10.60;97.00
10030;DHT22;5055;52.054;8.524;2024-02-21T13:34:54;10.60;97.00
10030;DHT22;5055;52.054;8.524;2024-02-21T13:37:22;10.60;97.00
10030;DHT22;5055;52.054;8.524;2024-02-21T13:39:50;10.60;97.00
10030;DHT22;5055;52.054;8.524;2024-02-21T13:42:18;10.60;97.00
10030;DHT22;5055;52.054;8.524;2024-02-21T13:44:48;10.50;97.00
10030;DHT22;5055;52.054;8.524;2024-02-21T13:47:17;10.50;97.00
10030;DHT22;5055;52.054;8.524;2024-02-21T13:49:45;10.50;97.00
10030;DHT22;5055;52.054;8.524;2024-02-21T13:52:13;10.50;97.00
10030;DHT22;5055;52.054;8.524;2024-02-21T13:54:42;10.50;97.00
10030;DHT22;5055;52.054;8.524;2024-02-21T13:57:10;10.40;97.00
10030;DHT22;5055;52.054;8.524;2024-02-21T13:59:38;10.40;97.00
10030;DHT22;5055;52.054;8.524;2024-02-21T14:02:10;10.40;97.00
10030;DHT22;5055;52.054;8.524;2024-02-21T14:04:40;10.40;97.00
10030;DHT22;5055;52.054;8.524;2024-02-21T14:07:09;10.50;97.00
10030;DHT22;5055;52.054;8.524;2024-02-21T14:09:37;10.60;97.00
10030;DHT22;5055;52.054;8.524;2024-02-21T14:12:06;10.50;97.00
10030;DHT22;5055;52.054;8.524;2024-02-21T14:14:35;10.60;97.00
10030;DHT22;5055;52.054;8.524;2024-02-21T14:17:06;10.50;97.00
10030;DHT22;5055;52.054;8.524;2024-02-21T14:19:36;10.60;97.00
10030;DHT22;5055;52.054;8.524;2024-02-21T14:22:04;10.60;97.00
10030;DHT22;5055;52.054;8.524;2024-02-21T14:24:32;10.60;97.00
10030;DHT22;5055;52.054;8.524;2024-02-21T14:27:01;10.60;97.00
10030;DHT22;5055;52.054;8.524;2024-02-21T14:29:30;10.60;97.00
10030;DHT22;5055;52.054;8.524;2024-02-21T14:31:58;10.60;97.00
10030;DHT22;5055;52.054;8.524;2024-02-21T14:34:27;10.70;97.00
10030;DHT22;5055;52.054;8.524;2024-02-21T14:36:56;10.80;97.00
10030;DHT22;5055;52.054;8.524;2024-02-21T14:39:25;10.90;97.00
10030;DHT22;5055;52.054;8.524;2024-02-21T14:41:54;10.90;97.00
10030;DHT22;5055;52.054;8.524;2024-02-21T14:44:22;11.00;97.00
10030;DHT22;5055;52.054;8.524;2024-02-21T14:46:50;11.00;97.00
10030;DHT22;5055;52.054;8.524;2024-02-21T14:49:19;10.90;97.00
10030;DHT22;5055;52.054;8.524;2024-02-21T14:51:47;10.80;97.00
10030;DHT22;5055;52.054;8.524;2024-02-21T14:54:17;10.80;97.00
10030;DHT22;5055;52.054;8.524;2024-02-21T14:56:46;10.80;97.00
10030;DHT22;5055;52.054;8.524;2024-02-21T14:59:14;10.80;97.00
10030;DHT22;5055;52.054;8.524;2024-02-21T15:01:55;10.80;97.00
10030;DHT22;5055;52.054;8.524;2024-02-21T15:04:23;10.80;97.00
10030;DHT22;5055;52.054;8.524;2024-02-21T15:06:52;10.80;97.00
10030;DHT22;5055;52.054;8.524;2024-02-21T15:09:22;10.80;97.00
10030;DHT22;5055;52.054;8.524;2024-02-21T15:11:50;10.80;97.00
10030;DHT22;5055;52.054;8.524;2024-02-21T15:14:18;10.70;97.00
10030;DHT22;5055;52.054;8.524;2024-02-21T15:16:51;10.70;97.00
10030;DHT22;5055;52.054;8.524;2024-02-21T15:19:19;10.70;97.00
10030;DHT22;5055;52.054;8.524;2024-02-21T15:21:47;10.60;97.00
10030;DHT22;5055;52.054;8.524;2024-02-21T15:24:15;10.60;97.00
10030;DHT22;5055;52.054;8.524;2024-02-21T15:26:45;10.60;97.00
10030;DHT22;5055;52.054;8.524;2024-02-21T15:29:13;10.60;97.00
10030;DHT22;5055;52.054;8.524;2024-02-21T15:31:42;10.60;97.00
10030;DHT22;5055;52.054;8.524;2024-02-21T15:34:14;10.60;97.00
10030;DHT22;5055;52.054;8.524;2024-02-21T15:36:44;10.60;97.00
10030;DHT22;5055;52.054;8.524;2024-02-21T15:39:12;10.60;97.00
10030;DHT22;5055;52.054;8.524;2024-02-21T15:41:40;10.60;97.00
10030;DHT22;5055;52.054;8.524;2024-02-21T15:44:10;10.60;97.00
10030;DHT22;5055;52.054;8.524;2024-02-21T15:46:38;10.60;97.00
10030;DHT22;5055;52.054;8.524;2024-02-21T15:49:07;10.60;97.00
10030;DHT22;5055;52.054;8.524;2024-02-21T15:51:35;10.60;97.00
10030;DHT22;5055;52.054;8.524;2024-02-21T15:54:06;10.60;97.00
10030;DHT22;5055;52.054;8.524;2024-02-21T15:56:35;10.50;97.00
10030;DHT22;5055;52.054;8.524;2024-02-21T15:59:03;10.60;97.00
10030;DHT22;5055;52.054;8.524;2024-02-21T16:01:33;10.50;97.00
10030;DHT22;5055;52.054;8.524;2024-02-21T16:04:02;10.50;97.00
10030;DHT22;5055;52.054;8.524;2024-02-21T16:06:32;10.50;97.00